CST,Max TemperatureF,Mean TemperatureF,Min TemperatureF,Max Dew PointF,MeanDew PointF,Min DewpointF,Max Humidity, Mean Humidity, Min Humidity, Max Sea Level PressureIn, Mean Sea Level PressureIn, Min Sea Level PressureIn, Max VisibilityMiles, Mean VisibilityMiles, Min VisibilityMiles, Max Wind SpeedMPH, Mean Wind SpeedMPH, Max Gust SpeedMPH,PrecipitationIn, CloudCover, Events, WindDirDegrees
2013-2-1,24,16,10,16,7,-1,75,64,55,30.51,30.40,30.29,10,10,5,21,12,31,0.00,4,Snow,228
2013-2-2,35,29,23,27,22,16,89,75,63,30.29,30.13,30.05,10,8,2,14,10,20,0.00,7,Snow,237
2013-2-3,32,27,22,27,20,16,96,78,55,30.16,30.09,30.02,10,8,2,23,4,29,0.00,6,Snow,259
2013-2-4,45,34,23,35,27,19,86,75,61,30.11,29.92,29.81,10,10,10,18,8,25,0.00,4,Rain,190
2013-2-5,45,35,25,34,29,24,94,80,64,30.14,29.98,29.89,10,8,4,14,6,18,0.00,2,,246
2013-2-6,44,36,28,31,29,27,96,77,57,30.29,30.21,30.14,10,9,5,13,4,17,0.00,2,,82
2013-2-7,62,47,32,48,37,29,93,73,40,30.16,29.98,29.84,10,8,4,21,6,29,0.06,2,Rain,133
2013-2-8,40,36,33,38,30,26,90,80,69,30.39,30.24,29.96,10,10,10,22,14,28,0.06,8,,322
2013-2-9,45,38,32,30,27,25,77,66,53,30.41,30.31,30.12,10,10,10,13,6,16,0.00,3,,105
2013-2-10,54,46,37,51,42,28,93,81,63,30.14,29.89,29.70,10,9,4,25,11,32,0.34,7,Rain,138
2013-2-11,53,44,33,47,31,27,80,63,48,30.14,29.98,29.75,10,10,10,29,18,37,0.00,3,,236
2013-2-12,47,36,26,32,29,25,96,75,49,30.18,30.09,29.94,10,9,5,8,3,,0.00,1,,286
2013-2-13,48,42,35,35,31,27,87,71,45,29.94,29.87,29.83,10,9,7,12,6,21,0.00,2,,198
2013-2-14,55,44,34,37,34,30,95,73,42,30.05,29.92,29.85,10,9,7,20,10,25,0.00,1,,226
2013-2-15,37,31,25,32,25,18,92,71,50,30.23,30.17,30.04,10,10,10,17,7,24,0.00,4,,277
2013-2-16,32,28,23,20,16,12,78,63,45,30.22,30.19,30.17,10,10,10,17,9,23,0.00,2,,287
2013-2-17,39,28,17,22,16,11,82,61,40,30.28,30.20,30.10,10,10,10,10,5,,0.00,0,,106
2013-2-18,61,47,33,47,35,20,92,67,41,30.08,29.85,29.62,10,9,3,38,16,46,0.43,4,Rain,160
2013-2-19,37,31,25,33,20,14,84,66,59,30.26,30.07,29.81,10,10,10,28,21,38,0.00,6,,265
2013-2-20,27,22,18,18,13,9,85,65,55,30.41,30.34,30.26,10,10,10,16,9,22,0.00,0,Snow,318
2013-2-21,34,27,20,32,23,17,96,81,64,30.35,30.19,29.88,10,8,0,20,7,26,0.21,3,Rain-Snow,52
2013-2-22,39,35,30,35,32,23,100,86,70,30.07,29.95,29.83,10,7,0,16,7,18,0.02,8,Fog-Thunderstorm,217
2013-2-23,37,31,25,26,23,21,83,73,59,30.06,30.03,29.98,10,10,7,10,6,16,0.00,1,,258
2013-2-24,44,33,22,30,25,21,96,77,49,30.18,30.12,30.03,10,9,3,5,1,,0.00,0,,359
2013-2-25,51,39,27,30,28,26,94,64,40,30.13,29.99,29.71,10,10,7,21,8,26,0.00,1,,56
2013-2-26,49,43,37,46,39,26,98,88,51,29.68,29.49,29.38,10,8,2,22,13,28,0.78,8,Rain-Thunderstorm,108
2013-2-27,39,36,34,38,33,30,95,88,80,29.81,29.72,29.58,10,8,1,22,16,29,0.00,8,Snow,234
2013-2-28,38,36,34,36,33,31,98,89,79,30.06,29.94,29.81,10,7,2,16,12,20,0.01,8,Rain-Snow,277